createdAt,value
2023-04-04T11:38:02.558Z,33.63
2023-04-04T11:38:49.929Z,32.13
2023-04-04T11:39:26.278Z,32.05
2023-04-04T11:40:12.311Z,32.16
2023-04-04T11:40:55.052Z,32.08
2023-04-04T11:42:08.487Z,31.76
2023-04-04T11:42:42.238Z,32.01
2023-04-04T11:43:17.063Z,31.71
2023-04-04T11:43:50.604Z,31.81
2023-04-04T11:44:24.713Z,31.87
2023-04-04T11:45:04.474Z,31.61
2023-04-04T11:45:37.778Z,31.73
2023-04-04T11:46:12.057Z,31.48
2023-04-04T11:46:45.629Z,31.46
2023-04-04T11:47:25.242Z,31.60
2023-04-04T11:47:58.323Z,31.62
2023-04-04T11:48:31.224Z,31.44
2023-04-04T11:49:03.549Z,31.36
2023-04-04T11:49:41.294Z,31.64
2023-04-04T11:50:17.193Z,31.39
2023-04-04T11:50:50.245Z,31.29
2023-04-04T11:51:23.117Z,31.33
2023-04-04T11:51:55.415Z,31.47
2023-04-04T11:52:35.303Z,31.54
2023-04-04T11:53:09.294Z,31.31
2023-04-04T11:53:43.058Z,31.32
2023-04-04T11:54:18.989Z,31.23
2023-04-04T11:54:52.007Z,31.18
2023-04-04T11:55:24.306Z,31.27
2023-04-04T11:55:56.766Z,31.31
2023-04-04T11:56:34.512Z,31.30
2023-04-04T11:57:07.579Z,31.47
2023-04-04T11:57:42.218Z,31.21
2023-04-04T11:58:18.288Z,31.35
2023-04-04T11:59:01.550Z,31.19
2023-04-04T11:59:43.258Z,31.15
2023-04-04T12:00:30.515Z,31.06
2023-04-04T12:01:03.883Z,31.29
2023-04-04T12:01:36.308Z,31.15
2023-04-04T12:02:12.458Z,31.22
2023-04-04T12:02:46.057Z,31.21
2023-04-04T12:03:18.852Z,31.01
2023-04-04T12:03:51.605Z,31.07
2023-04-04T12:04:27.917Z,30.99
2023-04-04T12:05:01.436Z,31.04
2023-04-04T12:05:35.670Z,31.13
2023-04-04T12:06:08.265Z,30.88
2023-04-04T12:06:43.046Z,30.81
2023-04-04T12:07:18.150Z,31.04
2023-04-04T12:07:52.382Z,30.84
2023-04-04T12:08:24.979Z,30.78
2023-04-04T12:08:57.858Z,30.83
2023-04-04T12:09:34.170Z,30.81
2023-04-04T12:10:07.130Z,30.64
2023-04-04T12:10:41.254Z,30.80
2023-04-04T12:11:16.083Z,31.02
2023-04-04T12:11:49.988Z,31.13
2023-04-04T12:12:31.543Z,30.88
2023-04-04T12:13:08.600Z,30.80
2023-04-04T12:13:45.229Z,30.90
2023-04-04T12:14:22.139Z,30.72
2023-04-04T12:15:03.446Z,30.92
2023-04-04T12:15:44.174Z,30.72
2023-04-04T12:16:20.235Z,30.78
2023-04-04T12:16:55.311Z,30.73
2023-04-04T12:17:29.879Z,30.64
2023-04-04T12:18:03.287Z,30.74
2023-04-04T12:18:37.598Z,30.67
2023-04-04T12:19:13.028Z,30.74
2023-04-04T12:19:46.157Z,30.96
2023-04-04T12:20:23.562Z,30.76
2023-04-04T12:20:57.331Z,30.52
2023-04-04T12:21:33.555Z,30.71
2023-04-04T12:22:09.326Z,30.68
2023-04-04T12:22:42.096Z,30.56
2023-04-04T12:23:18.129Z,30.80
2023-04-04T12:23:51.259Z,30.73
2023-04-04T12:24:24.038Z,30.88
2023-04-04T12:24:59.365Z,30.74
2023-04-04T12:25:34.216Z,30.93
2023-04-04T12:26:06.808Z,30.71
2023-04-04T12:26:46.198Z,30.82
2023-04-04T12:27:18.910Z,30.60
2023-04-04T12:27:52.921Z,30.35
2023-04-04T12:28:27.098Z,30.63
2023-04-04T12:29:00.956Z,30.55
2023-04-04T12:29:36.588Z,30.67
2023-04-04T12:30:15.926Z,30.62
2023-04-04T12:30:49.608Z,30.59
2023-04-04T12:31:22.485Z,29.99
2023-04-04T12:31:56.485Z,30.35
2023-04-04T12:32:29.556Z,30.08
2023-04-04T12:33:02.525Z,30.27
2023-04-04T12:33:44.318Z,30.00
2023-04-04T12:35:06.981Z,29.95
2023-04-04T12:35:39.785Z,30.26
2023-04-04T12:36:13.004Z,30.37
2023-04-04T12:36:49.652Z,29.99
2023-04-04T12:37:22.756Z,30.07
2023-04-04T12:37:58.622Z,30.16
2023-04-04T12:38:31.610Z,30.03
2023-04-04T12:39:14.230Z,29.75
2023-04-04T12:39:51.221Z,30.08
2023-04-04T12:40:23.778Z,30.00
2023-04-04T12:40:56.615Z,30.28
2023-04-04T12:41:28.977Z,30.15
2023-04-04T12:42:12.706Z,29.99
2023-04-04T12:42:49.588Z,30.14
2023-04-04T12:43:22.520Z,30.23
2023-04-04T12:44:03.488Z,29.98
2023-04-04T12:44:37.877Z,29.80
2023-04-04T12:45:11.293Z,30.23
2023-04-04T12:45:54.518Z,30.35
2023-04-04T12:46:28.381Z,29.70
2023-04-04T12:47:02.498Z,29.88
2023-04-04T12:47:35.453Z,29.71
2023-04-04T12:48:12.468Z,29.81
2023-04-04T12:48:44.981Z,29.67
2023-04-04T12:49:22.499Z,30.26
2023-04-04T12:49:55.638Z,29.94
2023-04-04T12:50:30.144Z,30.82
2023-04-04T12:51:06.904Z,30.79
2023-04-04T12:51:39.274Z,30.81
2023-04-04T12:52:23.436Z,30.34
2023-04-04T12:53:13.586Z,30.03
2023-04-04T12:53:53.272Z,30.27
2023-04-04T12:54:28.215Z,29.47
2023-04-04T12:55:11.347Z,29.55
2023-04-04T12:55:48.881Z,29.38
2023-04-04T12:56:26.726Z,29.21
2023-04-04T12:57:02.840Z,29.91
2023-04-04T12:57:36.937Z,31.18
2023-04-04T12:58:09.715Z,29.48
2023-04-04T12:58:47.656Z,29.29
2023-04-04T12:59:25.590Z,29.37
2023-04-04T13:00:02.120Z,29.24
2023-04-04T13:00:35.211Z,29.17
2023-04-04T13:01:08.535Z,29.17
2023-04-04T13:01:41.218Z,29.30
2023-04-04T13:02:17.337Z,29.66
2023-04-04T13:02:51.342Z,29.24
2023-04-04T13:03:25.520Z,29.46
2023-04-04T13:03:58.644Z,29.45
2023-04-04T13:04:32.164Z,29.33
2023-04-04T13:05:07.947Z,29.37
2023-04-04T13:05:41.200Z,29.21
2023-04-04T13:06:17.702Z,29.44
2023-04-04T13:06:51.035Z,29.16
2023-04-04T13:07:27.550Z,28.98
2023-04-04T13:08:10.291Z,28.89
2023-04-04T13:08:53.590Z,29.21
2023-04-04T13:09:26.939Z,29.13
2023-04-04T13:10:05.980Z,28.89
2023-04-04T13:10:57.142Z,29.00
2023-04-04T13:11:49.684Z,28.96
2023-04-04T13:12:23.853Z,28.76
2023-04-04T13:13:01.021Z,29.05
2023-04-04T13:13:38.915Z,29.18
2023-04-04T13:14:13.168Z,29.07
2023-04-04T13:14:56.525Z,29.01
2023-04-04T13:15:52.548Z,28.91
2023-04-04T13:16:37.437Z,28.66
2023-04-04T13:17:10.585Z,28.73
2023-04-04T13:17:47.961Z,28.86
2023-04-04T13:18:23.953Z,28.71
2023-04-04T13:18:56.548Z,28.68
2023-04-04T13:19:28.934Z,30.57
2023-04-04T13:20:04.370Z,28.88
2023-04-04T13:20:36.714Z,28.99
2023-04-04T13:21:09.887Z,28.54
2023-04-04T13:21:42.339Z,28.59
2023-04-04T13:22:14.721Z,28.82
2023-04-04T13:22:47.939Z,28.58
2023-04-04T13:23:23.577Z,28.58
2023-04-04T13:23:56.046Z,28.92
2023-04-04T13:24:30.458Z,28.61
2023-04-04T13:25:08.550Z,28.79
2023-04-04T13:25:41.380Z,28.99
2023-04-04T13:26:14.526Z,28.57
2023-04-04T13:26:46.894Z,28.25
2023-04-04T13:27:19.278Z,27.34
2023-04-04T13:27:52.089Z,26.55
2023-04-04T13:28:27.126Z,25.68
2023-04-04T13:28:59.534Z,24.62
2023-04-04T13:29:33.020Z,27.72
2023-04-04T13:30:07.078Z,23.68
2023-04-04T13:30:46.982Z,23.31
2023-04-04T13:32:32.749Z,24.17
2023-04-04T13:33:06.544Z,23.70
2023-04-04T13:33:40.948Z,23.83
2023-04-04T13:34:13.960Z,24.31
2023-04-04T13:34:46.158Z,28.85
2023-04-04T13:35:19.429Z,25.28
2023-04-04T13:35:52.179Z,25.58
2023-04-04T13:36:24.434Z,25.83
2023-04-04T13:36:56.893Z,26.11
2023-04-04T13:37:29.241Z,26.04
2023-04-04T13:38:01.690Z,26.35
2023-04-04T13:38:34.963Z,26.38
2023-04-04T13:39:07.300Z,26.53
2023-04-04T13:39:39.847Z,26.63
2023-04-04T13:40:12.732Z,26.66
2023-04-04T13:40:46.113Z,26.97
2023-04-04T13:41:18.428Z,26.52
2023-04-04T13:41:50.748Z,26.84
2023-04-04T13:42:27.198Z,26.63
2023-04-04T13:42:59.578Z,26.69
2023-04-04T13:43:31.724Z,26.90
2023-04-04T13:44:11.452Z,27.12
2023-04-04T13:44:45.565Z,26.83
2023-04-04T13:45:19.552Z,26.99
2023-04-04T13:45:53.540Z,26.86
2023-04-04T13:46:26.629Z,27.00
2023-04-04T13:46:58.962Z,27.11
